sensor_id;sensor_type;location;lat;lon;timestamp;P1;durP1;ratioP1;P2;durP2;ratioP2
9892;SDS011;4985;49.092;8.542;2022-12-08T00:00:00;7.13;;;4.70;;
9892;SDS011;4985;49.092;8.542;2022-12-08T00:02:26;5.73;;;3.83;;
9892;SDS011;4985;49.092;8.542;2022-12-08T00:04:53;5.27;;;4.03;;
9892;SDS011;4985;49.092;8.542;2022-12-08T00:07:37;6.07;;;4.07;;
9892;SDS011;4985;49.092;8.542;2022-12-08T00:10:21;6.97;;;3.80;;
9892;SDS011;4985;49.092;8.542;2022-12-08T00:12:48;4.70;;;3.73;;
9892;SDS011;4985;49.092;8.542;2022-12-08T00:15:16;6.60;;;4.30;;
9892;SDS011;4985;49.092;8.542;2022-12-08T00:17:42;6.43;;;3.50;;
9892;SDS011;4985;49.092;8.542;2022-12-08T00:20:09;8.37;;;5.43;;
9892;SDS011;4985;49.092;8.542;2022-12-08T00:22:36;5.47;;;4.23;;
9892;SDS011;4985;49.092;8.542;2022-12-08T00:25:03;5.63;;;4.13;;
9892;SDS011;4985;49.092;8.542;2022-12-08T00:27:30;4.47;;;3.57;;
9892;SDS011;4985;49.092;8.542;2022-12-08T00:29:56;5.67;;;3.80;;
9892;SDS011;4985;49.092;8.542;2022-12-08T00:32:24;5.67;;;3.77;;
9892;SDS011;4985;49.092;8.542;2022-12-08T00:34:51;6.97;;;4.53;;
9892;SDS011;4985;49.092;8.542;2022-12-08T00:37:17;5.67;;;3.53;;
9892;SDS011;4985;49.092;8.542;2022-12-08T00:39:44;6.03;;;3.87;;
9892;SDS011;4985;49.092;8.542;2022-12-08T00:42:11;6.80;;;4.47;;
9892;SDS011;4985;49.092;8.542;2022-12-08T00:44:37;8.40;;;4.90;;
9892;SDS011;4985;49.092;8.542;2022-12-08T00:47:04;5.40;;;4.17;;
9892;SDS011;4985;49.092;8.542;2022-12-08T00:49:32;5.10;;;3.60;;
9892;SDS011;4985;49.092;8.542;2022-12-08T00:51:59;5.43;;;3.40;;
9892;SDS011;4985;49.092;8.542;2022-12-08T00:54:25;5.30;;;3.87;;
9892;SDS011;4985;49.092;8.542;2022-12-08T00:56:52;4.40;;;3.60;;
9892;SDS011;4985;49.092;8.542;2022-12-08T00:59:19;5.23;;;4.00;;
9892;SDS011;4985;49.092;8.542;2022-12-08T01:01:45;5.33;;;3.73;;
9892;SDS011;4985;49.092;8.542;2022-12-08T01:04:13;4.83;;;3.77;;
9892;SDS011;4985;49.092;8.542;2022-12-08T01:06:43;4.97;;;3.63;;
9892;SDS011;4985;49.092;8.542;2022-12-08T01:09:09;4.70;;;3.13;;
9892;SDS011;4985;49.092;8.542;2022-12-08T01:11:37;4.10;;;3.10;;
9892;SDS011;4985;49.092;8.542;2022-12-08T01:14:04;6.37;;;3.53;;
9892;SDS011;4985;49.092;8.542;2022-12-08T01:16:31;5.13;;;3.43;;
9892;SDS011;4985;49.092;8.542;2022-12-08T01:19:00;4.43;;;3.27;;
9892;SDS011;4985;49.092;8.542;2022-12-08T01:21:27;5.27;;;3.50;;
9892;SDS011;4985;49.092;8.542;2022-12-08T01:23:55;4.60;;;2.90;;
9892;SDS011;4985;49.092;8.542;2022-12-08T01:26:23;4.23;;;3.27;;
9892;SDS011;4985;49.092;8.542;2022-12-08T01:28:50;5.73;;;3.57;;
9892;SDS011;4985;49.092;8.542;2022-12-08T01:31:17;5.93;;;3.97;;
9892;SDS011;4985;49.092;8.542;2022-12-08T01:33:46;4.93;;;3.53;;
9892;SDS011;4985;49.092;8.542;2022-12-08T01:36:17;5.27;;;3.43;;
9892;SDS011;4985;49.092;8.542;2022-12-08T01:38:45;4.97;;;3.37;;
9892;SDS011;4985;49.092;8.542;2022-12-08T01:41:14;4.50;;;3.07;;
9892;SDS011;4985;49.092;8.542;2022-12-08T01:43:44;4.47;;;3.07;;
9892;SDS011;4985;49.092;8.542;2022-12-08T01:46:20;3.87;;;3.07;;
9892;SDS011;4985;49.092;8.542;2022-12-08T01:48:46;3.57;;;2.93;;
9892;SDS011;4985;49.092;8.542;2022-12-08T01:51:14;4.47;;;2.90;;
9892;SDS011;4985;49.092;8.542;2022-12-08T01:53:41;4.03;;;2.50;;
9892;SDS011;4985;49.092;8.542;2022-12-08T01:56:08;3.23;;;2.70;;
9892;SDS011;4985;49.092;8.542;2022-12-08T01:58:40;4.30;;;2.63;;
9892;SDS011;4985;49.092;8.542;2022-12-08T02:01:10;4.97;;;3.03;;
9892;SDS011;4985;49.092;8.542;2022-12-08T02:03:38;5.97;;;3.07;;
9892;SDS011;4985;49.092;8.542;2022-12-08T02:06:08;4.03;;;3.10;;
9892;SDS011;4985;49.092;8.542;2022-12-08T02:08:35;4.07;;;2.90;;
9892;SDS011;4985;49.092;8.542;2022-12-08T02:11:07;5.20;;;3.23;;
9892;SDS011;4985;49.092;8.542;2022-12-08T02:13:34;3.70;;;2.77;;
9892;SDS011;4985;49.092;8.542;2022-12-08T02:16:04;4.10;;;2.83;;
9892;SDS011;4985;49.092;8.542;2022-12-08T02:18:44;4.33;;;3.40;;
9892;SDS011;4985;49.092;8.542;2022-12-08T02:21:22;5.03;;;3.10;;
9892;SDS011;4985;49.092;8.542;2022-12-08T02:23:58;4.27;;;2.90;;
9892;SDS011;4985;49.092;8.542;2022-12-08T02:26:40;3.50;;;2.87;;
9892;SDS011;4985;49.092;8.542;2022-12-08T02:29:43;3.87;;;3.00;;
9892;SDS011;4985;49.092;8.542;2022-12-08T02:32:54;4.00;;;2.83;;
9892;SDS011;4985;49.092;8.542;2022-12-08T02:35:38;4.13;;;2.63;;
9892;SDS011;4985;49.092;8.542;2022-12-08T02:38:14;4.20;;;2.60;;
9892;SDS011;4985;49.092;8.542;2022-12-08T02:40:53;4.97;;;2.83;;
9892;SDS011;4985;49.092;8.542;2022-12-08T02:43:31;4.20;;;3.43;;
9892;SDS011;4985;49.092;8.542;2022-12-08T02:46:01;5.53;;;3.17;;
9892;SDS011;4985;49.092;8.542;2022-12-08T02:48:32;5.00;;;3.20;;
9892;SDS011;4985;49.092;8.542;2022-12-08T02:51:00;5.10;;;3.10;;
9892;SDS011;4985;49.092;8.542;2022-12-08T02:53:27;4.03;;;2.87;;
9892;SDS011;4985;49.092;8.542;2022-12-08T02:55:59;4.40;;;2.60;;
9892;SDS011;4985;49.092;8.542;2022-12-08T02:58:40;3.50;;;2.73;;
9892;SDS011;4985;49.092;8.542;2022-12-08T03:01:21;3.40;;;2.80;;
9892;SDS011;4985;49.092;8.542;2022-12-08T03:04:04;5.03;;;3.63;;
9892;SDS011;4985;49.092;8.542;2022-12-08T03:06:41;4.20;;;2.70;;
9892;SDS011;4985;49.092;8.542;2022-12-08T03:09:16;4.23;;;2.93;;
9892;SDS011;4985;49.092;8.542;2022-12-08T03:11:53;3.60;;;2.20;;
9892;SDS011;4985;49.092;8.542;2022-12-08T03:14:26;3.07;;;2.13;;
9892;SDS011;4985;49.092;8.542;2022-12-08T03:16:55;3.03;;;2.40;;
9892;SDS011;4985;49.092;8.542;2022-12-08T03:19:25;4.00;;;2.37;;
9892;SDS011;4985;49.092;8.542;2022-12-08T03:21:55;3.90;;;2.67;;
9892;SDS011;4985;49.092;8.542;2022-12-08T03:24:27;3.20;;;2.43;;
9892;SDS011;4985;49.092;8.542;2022-12-08T03:26:56;3.00;;;2.23;;
9892;SDS011;4985;49.092;8.542;2022-12-08T03:29:26;3.33;;;2.30;;
9892;SDS011;4985;49.092;8.542;2022-12-08T03:31:55;3.17;;;2.33;;
9892;SDS011;4985;49.092;8.542;2022-12-08T03:34:25;4.37;;;2.70;;
9892;SDS011;4985;49.092;8.542;2022-12-08T03:36:56;3.87;;;2.23;;
9892;SDS011;4985;49.092;8.542;2022-12-08T03:39:26;2.97;;;2.30;;
9892;SDS011;4985;49.092;8.542;2022-12-08T03:41:53;3.80;;;2.63;;
9892;SDS011;4985;49.092;8.542;2022-12-08T03:44:19;3.30;;;2.63;;
9892;SDS011;4985;49.092;8.542;2022-12-08T03:46:46;4.00;;;2.50;;
9892;SDS011;4985;49.092;8.542;2022-12-08T03:49:12;3.23;;;2.43;;
9892;SDS011;4985;49.092;8.542;2022-12-08T03:51:39;4.37;;;2.60;;
9892;SDS011;4985;49.092;8.542;2022-12-08T03:54:07;3.17;;;2.47;;
9892;SDS011;4985;49.092;8.542;2022-12-08T03:56:34;3.40;;;2.23;;
9892;SDS011;4985;49.092;8.542;2022-12-08T03:59:02;3.00;;;2.20;;
9892;SDS011;4985;49.092;8.542;2022-12-08T04:01:30;3.70;;;2.80;;
9892;SDS011;4985;49.092;8.542;2022-12-08T04:03:57;4.07;;;2.70;;
9892;SDS011;4985;49.092;8.542;2022-12-08T04:06:24;2.50;;;2.17;;
9892;SDS011;4985;49.092;8.542;2022-12-08T04:08:50;3.00;;;2.10;;
9892;SDS011;4985;49.092;8.542;2022-12-08T04:11:20;2.50;;;2.13;;
9892;SDS011;4985;49.092;8.542;2022-12-08T04:13:46;3.60;;;2.50;;
9892;SDS011;4985;49.092;8.542;2022-12-08T04:16:15;2.77;;;2.43;;
9892;SDS011;4985;49.092;8.542;2022-12-08T04:18:43;3.37;;;2.70;;
9892;SDS011;4985;49.092;8.542;2022-12-08T04:21:09;3.10;;;2.33;;
9892;SDS011;4985;49.092;8.542;2022-12-08T04:23:36;3.20;;;2.13;;
9892;SDS011;4985;49.092;8.542;2022-12-08T04:26:03;4.30;;;2.53;;
9892;SDS011;4985;49.092;8.542;2022-12-08T04:28:32;4.80;;;3.27;;
9892;SDS011;4985;49.092;8.542;2022-12-08T04:30:59;3.83;;;2.77;;
9892;SDS011;4985;49.092;8.542;2022-12-08T04:33:25;3.37;;;2.57;;
9892;SDS011;4985;49.092;8.542;2022-12-08T04:35:52;2.93;;;2.47;;
9892;SDS011;4985;49.092;8.542;2022-12-08T04:38:19;2.77;;;2.13;;
9892;SDS011;4985;49.092;8.542;2022-12-08T04:40:45;3.80;;;2.33;;
9892;SDS011;4985;49.092;8.542;2022-12-08T04:43:12;3.57;;;2.60;;
9892;SDS011;4985;49.092;8.542;2022-12-08T04:45:40;5.07;;;2.53;;
9892;SDS011;4985;49.092;8.542;2022-12-08T04:48:07;2.43;;;2.23;;
9892;SDS011;4985;49.092;8.542;2022-12-08T04:50:37;3.13;;;2.23;;
9892;SDS011;4985;49.092;8.542;2022-12-08T04:53:04;3.03;;;2.43;;
9892;SDS011;4985;49.092;8.542;2022-12-08T04:55:31;3.80;;;2.70;;
9892;SDS011;4985;49.092;8.542;2022-12-08T04:57:57;4.27;;;2.97;;
9892;SDS011;4985;49.092;8.542;2022-12-08T05:00:24;4.03;;;3.03;;
9892;SDS011;4985;49.092;8.542;2022-12-08T05:02:52;4.63;;;2.43;;
9892;SDS011;4985;49.092;8.542;2022-12-08T05:05:19;4.77;;;2.87;;
9892;SDS011;4985;49.092;8.542;2022-12-08T05:07:45;3.50;;;2.43;;
9892;SDS011;4985;49.092;8.542;2022-12-08T05:10:12;4.20;;;2.57;;
9892;SDS011;4985;49.092;8.542;2022-12-08T05:12:38;3.33;;;2.63;;
9892;SDS011;4985;49.092;8.542;2022-12-08T05:15:05;3.67;;;2.40;;
9892;SDS011;4985;49.092;8.542;2022-12-08T05:17:32;3.67;;;2.77;;
9892;SDS011;4985;49.092;8.542;2022-12-08T05:20:00;3.50;;;2.60;;
9892;SDS011;4985;49.092;8.542;2022-12-08T05:22:27;3.63;;;2.43;;
9892;SDS011;4985;49.092;8.542;2022-12-08T05:24:54;4.80;;;2.90;;
9892;SDS011;4985;49.092;8.542;2022-12-08T05:27:20;5.03;;;2.43;;
9892;SDS011;4985;49.092;8.542;2022-12-08T05:29:47;4.50;;;3.43;;
9892;SDS011;4985;49.092;8.542;2022-12-08T05:32:14;3.20;;;2.90;;
9892;SDS011;4985;49.092;8.542;2022-12-08T05:34:41;4.53;;;3.40;;
9892;SDS011;4985;49.092;8.542;2022-12-08T05:37:09;4.87;;;3.07;;
9892;SDS011;4985;49.092;8.542;2022-12-08T05:39:35;4.57;;;2.77;;
9892;SDS011;4985;49.092;8.542;2022-12-08T05:42:02;3.70;;;2.57;;
9892;SDS011;4985;49.092;8.542;2022-12-08T05:44:29;2.83;;;2.17;;
9892;SDS011;4985;49.092;8.542;2022-12-08T05:46:55;3.07;;;2.10;;
9892;SDS011;4985;49.092;8.542;2022-12-08T05:49:22;4.20;;;2.90;;
9892;SDS011;4985;49.092;8.542;2022-12-08T05:51:49;3.17;;;2.43;;
9892;SDS011;4985;49.092;8.542;2022-12-08T05:54:17;4.50;;;3.37;;
9892;SDS011;4985;49.092;8.542;2022-12-08T05:56:43;3.90;;;2.90;;
9892;SDS011;4985;49.092;8.542;2022-12-08T05:59:10;3.70;;;2.53;;
9892;SDS011;4985;49.092;8.542;2022-12-08T06:01:36;3.33;;;2.80;;
9892;SDS011;4985;49.092;8.542;2022-12-08T06:04:03;4.60;;;2.77;;
9892;SDS011;4985;49.092;8.542;2022-12-08T06:06:30;3.10;;;2.37;;
9892;SDS011;4985;49.092;8.542;2022-12-08T06:09:00;5.20;;;3.33;;
9892;SDS011;4985;49.092;8.542;2022-12-08T06:11:29;3.73;;;2.70;;
9892;SDS011;4985;49.092;8.542;2022-12-08T06:13:57;3.80;;;2.70;;
9892;SDS011;4985;49.092;8.542;2022-12-08T06:16:24;3.57;;;2.63;;
9892;SDS011;4985;49.092;8.542;2022-12-08T06:18:52;4.77;;;3.30;;
9892;SDS011;4985;49.092;8.542;2022-12-08T06:21:19;5.20;;;3.70;;
9892;SDS011;4985;49.092;8.542;2022-12-08T06:23:46;6.00;;;3.90;;
9892;SDS011;4985;49.092;8.542;2022-12-08T06:26:14;6.60;;;4.60;;
9892;SDS011;4985;49.092;8.542;2022-12-08T06:28:42;7.73;;;4.77;;
9892;SDS011;4985;49.092;8.542;2022-12-08T06:31:10;5.53;;;4.03;;
9892;SDS011;4985;49.092;8.542;2022-12-08T06:33:39;4.33;;;2.87;;
9892;SDS011;4985;49.092;8.542;2022-12-08T06:36:06;6.63;;;4.20;;
9892;SDS011;4985;49.092;8.542;2022-12-08T06:38:32;6.57;;;3.87;;
9892;SDS011;4985;49.092;8.542;2022-12-08T06:40:59;6.67;;;4.27;;
9892;SDS011;4985;49.092;8.542;2022-12-08T06:43:26;8.93;;;5.20;;
9892;SDS011;4985;49.092;8.542;2022-12-08T06:45:54;11.77;;;4.53;;
9892;SDS011;4985;49.092;8.542;2022-12-08T06:48:21;5.70;;;3.57;;
9892;SDS011;4985;49.092;8.542;2022-12-08T06:50:47;7.13;;;3.43;;
9892;SDS011;4985;49.092;8.542;2022-12-08T06:53:14;4.77;;;3.03;;
9892;SDS011;4985;49.092;8.542;2022-12-08T06:55:42;3.83;;;2.47;;
9892;SDS011;4985;49.092;8.542;2022-12-08T06:58:09;5.37;;;2.73;;
9892;SDS011;4985;49.092;8.542;2022-12-08T07:00:37;4.83;;;3.37;;
9892;SDS011;4985;49.092;8.542;2022-12-08T07:03:05;2.83;;;2.43;;
9892;SDS011;4985;49.092;8.542;2022-12-08T07:05:32;5.07;;;3.30;;
9892;SDS011;4985;49.092;8.542;2022-12-08T07:07:59;8.43;;;4.50;;
9892;SDS011;4985;49.092;8.542;2022-12-08T07:10:25;6.07;;;3.67;;
9892;SDS011;4985;49.092;8.542;2022-12-08T07:12:52;4.77;;;3.70;;
9892;SDS011;4985;49.092;8.542;2022-12-08T07:15:18;5.70;;;3.87;;
9892;SDS011;4985;49.092;8.542;2022-12-08T07:17:46;3.50;;;3.00;;
9892;SDS011;4985;49.092;8.542;2022-12-08T07:20:14;4.47;;;2.97;;
9892;SDS011;4985;49.092;8.542;2022-12-08T07:22:46;3.50;;;2.47;;
9892;SDS011;4985;49.092;8.542;2022-12-08T07:25:13;3.83;;;2.70;;
9892;SDS011;4985;49.092;8.542;2022-12-08T07:27:40;3.57;;;3.07;;
9892;SDS011;4985;49.092;8.542;2022-12-08T07:30:07;4.13;;;3.03;;
9892;SDS011;4985;49.092;8.542;2022-12-08T07:32:34;4.97;;;2.90;;
9892;SDS011;4985;49.092;8.542;2022-12-08T07:35:01;4.33;;;3.13;;
9892;SDS011;4985;49.092;8.542;2022-12-08T07:37:29;3.47;;;2.53;;
9892;SDS011;4985;49.092;8.542;2022-12-08T07:39:58;2.97;;;2.60;;
9892;SDS011;4985;49.092;8.542;2022-12-08T07:42:24;3.87;;;2.40;;
9892;SDS011;4985;49.092;8.542;2022-12-08T07:44:51;2.83;;;2.23;;
9892;SDS011;4985;49.092;8.542;2022-12-08T07:47:17;5.00;;;3.43;;
9892;SDS011;4985;49.092;8.542;2022-12-08T07:49:44;4.53;;;3.13;;
9892;SDS011;4985;49.092;8.542;2022-12-08T07:52:10;4.17;;;3.23;;
9892;SDS011;4985;49.092;8.542;2022-12-08T07:54:38;6.00;;;3.43;;
9892;SDS011;4985;49.092;8.542;2022-12-08T07:57:05;5.20;;;3.50;;
9892;SDS011;4985;49.092;8.542;2022-12-08T07:59:33;4.70;;;3.50;;
9892;SDS011;4985;49.092;8.542;2022-12-08T08:01:59;4.83;;;3.53;;
9892;SDS011;4985;49.092;8.542;2022-12-08T08:04:26;4.40;;;3.23;;
9892;SDS011;4985;49.092;8.542;2022-12-08T08:06:53;6.70;;;3.57;;
9892;SDS011;4985;49.092;8.542;2022-12-08T08:09:19;4.47;;;3.40;;
9892;SDS011;4985;49.092;8.542;2022-12-08T08:11:47;5.47;;;3.20;;
9892;SDS011;4985;49.092;8.542;2022-12-08T08:14:14;4.70;;;3.37;;
9892;SDS011;4985;49.092;8.542;2022-12-08T08:16:40;6.20;;;3.53;;
9892;SDS011;4985;49.092;8.542;2022-12-08T08:19:10;4.00;;;2.57;;
9892;SDS011;4985;49.092;8.542;2022-12-08T08:21:37;4.67;;;3.07;;
9892;SDS011;4985;49.092;8.542;2022-12-08T08:24:04;4.63;;;2.90;;
9892;SDS011;4985;49.092;8.542;2022-12-08T08:26:30;4.40;;;2.93;;
9892;SDS011;4985;49.092;8.542;2022-12-08T08:28:58;3.87;;;2.90;;
9892;SDS011;4985;49.092;8.542;2022-12-08T08:31:25;2.67;;;2.00;;
9892;SDS011;4985;49.092;8.542;2022-12-08T08:33:52;5.17;;;3.30;;
9892;SDS011;4985;49.092;8.542;2022-12-08T08:36:19;3.53;;;3.17;;
9892;SDS011;4985;49.092;8.542;2022-12-08T08:38:46;4.63;;;3.20;;
9892;SDS011;4985;49.092;8.542;2022-12-08T08:41:12;5.43;;;3.13;;
9892;SDS011;4985;49.092;8.542;2022-12-08T08:43:39;3.70;;;2.47;;
9892;SDS011;4985;49.092;8.542;2022-12-08T08:46:07;4.17;;;2.63;;
9892;SDS011;4985;49.092;8.542;2022-12-08T08:48:35;5.67;;;2.67;;
9892;SDS011;4985;49.092;8.542;2022-12-08T08:51:05;3.93;;;2.73;;
9892;SDS011;4985;49.092;8.542;2022-12-08T08:53:33;4.10;;;2.97;;
9892;SDS011;4985;49.092;8.542;2022-12-08T08:56:00;4.70;;;3.13;;
9892;SDS011;4985;49.092;8.542;2022-12-08T08:58:29;3.83;;;2.63;;
9892;SDS011;4985;49.092;8.542;2022-12-08T09:00:55;3.70;;;2.53;;
9892;SDS011;4985;49.092;8.542;2022-12-08T09:03:23;4.03;;;2.67;;
9892;SDS011;4985;49.092;8.542;2022-12-08T09:05:50;4.67;;;3.20;;
9892;SDS011;4985;49.092;8.542;2022-12-08T09:08:16;5.47;;;3.13;;
9892;SDS011;4985;49.092;8.542;2022-12-08T09:10:43;5.23;;;3.60;;
9892;SDS011;4985;49.092;8.542;2022-12-08T09:13:10;5.37;;;3.47;;
9892;SDS011;4985;49.092;8.542;2022-12-08T09:15:36;4.97;;;2.90;;
9892;SDS011;4985;49.092;8.542;2022-12-08T09:18:03;3.57;;;2.83;;
9892;SDS011;4985;49.092;8.542;2022-12-08T09:20:32;3.83;;;3.03;;
9892;SDS011;4985;49.092;8.542;2022-12-08T09:22:58;5.17;;;3.40;;
9892;SDS011;4985;49.092;8.542;2022-12-08T09:25:25;4.87;;;3.13;;
9892;SDS011;4985;49.092;8.542;2022-12-08T09:27:52;4.97;;;3.43;;
9892;SDS011;4985;49.092;8.542;2022-12-08T09:30:19;4.83;;;3.27;;
9892;SDS011;4985;49.092;8.542;2022-12-08T09:32:45;4.80;;;3.23;;
9892;SDS011;4985;49.092;8.542;2022-12-08T09:35:12;3.43;;;2.97;;
9892;SDS011;4985;49.092;8.542;2022-12-08T09:37:40;4.50;;;2.93;;
9892;SDS011;4985;49.092;8.542;2022-12-08T09:40:07;4.10;;;3.07;;
9892;SDS011;4985;49.092;8.542;2022-12-08T09:42:37;5.27;;;3.60;;
9892;SDS011;4985;49.092;8.542;2022-12-08T09:45:09;3.53;;;3.00;;
9892;SDS011;4985;49.092;8.542;2022-12-08T09:47:39;6.00;;;3.83;;
9892;SDS011;4985;49.092;8.542;2022-12-08T09:50:11;6.50;;;3.67;;
9892;SDS011;4985;49.092;8.542;2022-12-08T09:52:44;3.80;;;3.00;;
9892;SDS011;4985;49.092;8.542;2022-12-08T09:55:16;5.07;;;3.40;;
9892;SDS011;4985;49.092;8.542;2022-12-08T09:57:48;5.13;;;3.57;;
9892;SDS011;4985;49.092;8.542;2022-12-08T10:00:21;6.77;;;4.73;;
9892;SDS011;4985;49.092;8.542;2022-12-08T10:02:48;6.37;;;4.30;;
9892;SDS011;4985;49.092;8.542;2022-12-08T10:05:15;7.57;;;5.10;;
9892;SDS011;4985;49.092;8.542;2022-12-08T10:07:44;7.40;;;4.33;;
9892;SDS011;4985;49.092;8.542;2022-12-08T10:10:18;9.43;;;5.63;;
9892;SDS011;4985;49.092;8.542;2022-12-08T10:12:53;5.13;;;3.53;;
9892;SDS011;4985;49.092;8.542;2022-12-08T10:15:31;7.17;;;4.80;;
9892;SDS011;4985;49.092;8.542;2022-12-08T10:18:09;7.60;;;4.80;;
9892;SDS011;4985;49.092;8.542;2022-12-08T10:20:39;7.67;;;4.20;;
9892;SDS011;4985;49.092;8.542;2022-12-08T10:23:12;5.20;;;3.63;;
9892;SDS011;4985;49.092;8.542;2022-12-08T10:25:49;5.97;;;3.77;;
9892;SDS011;4985;49.092;8.542;2022-12-08T10:28:20;4.90;;;3.10;;
9892;SDS011;4985;49.092;8.542;2022-12-08T10:30:47;6.83;;;4.40;;
9892;SDS011;4985;49.092;8.542;2022-12-08T10:33:14;7.10;;;4.20;;
9892;SDS011;4985;49.092;8.542;2022-12-08T10:35:43;7.20;;;4.53;;
9892;SDS011;4985;49.092;8.542;2022-12-08T10:38:18;5.80;;;3.77;;
9892;SDS011;4985;49.092;8.542;2022-12-08T10:40:48;8.33;;;5.93;;
9892;SDS011;4985;49.092;8.542;2022-12-08T10:43:17;7.27;;;5.03;;
9892;SDS011;4985;49.092;8.542;2022-12-08T10:45:47;5.67;;;4.03;;
9892;SDS011;4985;49.092;8.542;2022-12-08T10:48:15;6.77;;;4.20;;
9892;SDS011;4985;49.092;8.542;2022-12-08T10:50:45;5.80;;;4.23;;
9892;SDS011;4985;49.092;8.542;2022-12-08T10:53:22;6.00;;;4.30;;
9892;SDS011;4985;49.092;8.542;2022-12-08T10:55:51;7.83;;;4.87;;
9892;SDS011;4985;49.092;8.542;2022-12-08T10:58:31;7.43;;;3.83;;
9892;SDS011;4985;49.092;8.542;2022-12-08T11:01:00;5.93;;;3.93;;
9892;SDS011;4985;49.092;8.542;2022-12-08T11:03:30;5.13;;;3.47;;
9892;SDS011;4985;49.092;8.542;2022-12-08T11:06:00;6.87;;;4.13;;
9892;SDS011;4985;49.092;8.542;2022-12-08T11:08:42;8.10;;;5.03;;
9892;SDS011;4985;49.092;8.542;2022-12-08T11:11:12;7.10;;;4.20;;
9892;SDS011;4985;49.092;8.542;2022-12-08T11:13:40;3.77;;;3.30;;
9892;SDS011;4985;49.092;8.542;2022-12-08T11:16:07;6.03;;;4.53;;
9892;SDS011;4985;49.092;8.542;2022-12-08T11:18:38;8.37;;;4.73;;
9892;SDS011;4985;49.092;8.542;2022-12-08T11:21:07;6.93;;;4.90;;
9892;SDS011;4985;49.092;8.542;2022-12-08T11:23:38;6.90;;;4.33;;
9892;SDS011;4985;49.092;8.542;2022-12-08T11:26:11;7.63;;;5.00;;
9892;SDS011;4985;49.092;8.542;2022-12-08T11:28:43;9.40;;;6.17;;
9892;SDS011;4985;49.092;8.542;2022-12-08T11:31:14;5.63;;;3.73;;
9892;SDS011;4985;49.092;8.542;2022-12-08T11:33:47;5.67;;;3.73;;
9892;SDS011;4985;49.092;8.542;2022-12-08T11:36:17;4.30;;;3.37;;
9892;SDS011;4985;49.092;8.542;2022-12-08T11:38:50;5.13;;;3.33;;
9892;SDS011;4985;49.092;8.542;2022-12-08T11:41:23;5.53;;;3.70;;
9892;SDS011;4985;49.092;8.542;2022-12-08T11:43:55;6.07;;;3.67;;
9892;SDS011;4985;49.092;8.542;2022-12-08T11:46:27;5.83;;;3.20;;
9892;SDS011;4985;49.092;8.542;2022-12-08T11:49:00;8.50;;;5.77;;
9892;SDS011;4985;49.092;8.542;2022-12-08T11:51:29;4.83;;;3.33;;
9892;SDS011;4985;49.092;8.542;2022-12-08T11:54:04;6.10;;;3.63;;
9892;SDS011;4985;49.092;8.542;2022-12-08T11:56:39;6.13;;;3.67;;
9892;SDS011;4985;49.092;8.542;2022-12-08T11:59:12;6.17;;;3.87;;
9892;SDS011;4985;49.092;8.542;2022-12-08T12:01:44;4.70;;;3.60;;
9892;SDS011;4985;49.092;8.542;2022-12-08T12:04:13;5.63;;;3.90;;
9892;SDS011;4985;49.092;8.542;2022-12-08T12:07:00;5.87;;;3.40;;
9892;SDS011;4985;49.092;8.542;2022-12-08T12:09:54;4.47;;;3.10;;
9892;SDS011;4985;49.092;8.542;2022-12-08T12:12:34;5.60;;;3.40;;
9892;SDS011;4985;49.092;8.542;2022-12-08T12:15:24;5.47;;;3.73;;
9892;SDS011;4985;49.092;8.542;2022-12-08T12:17:59;6.03;;;3.83;;
9892;SDS011;4985;49.092;8.542;2022-12-08T12:20:29;5.67;;;3.60;;
9892;SDS011;4985;49.092;8.542;2022-12-08T12:22:59;3.83;;;3.10;;
9892;SDS011;4985;49.092;8.542;2022-12-08T12:25:31;5.77;;;3.77;;
9892;SDS011;4985;49.092;8.542;2022-12-08T12:28:01;4.50;;;2.97;;
9892;SDS011;4985;49.092;8.542;2022-12-08T12:30:32;7.53;;;4.00;;
9892;SDS011;4985;49.092;8.542;2022-12-08T12:33:15;4.87;;;3.33;;
9892;SDS011;4985;49.092;8.542;2022-12-08T12:35:43;6.63;;;3.87;;
9892;SDS011;4985;49.092;8.542;2022-12-08T12:38:17;5.27;;;3.57;;
9892;SDS011;4985;49.092;8.542;2022-12-08T12:41:05;4.63;;;2.97;;
9892;SDS011;4985;49.092;8.542;2022-12-08T12:43:34;5.60;;;3.20;;
9892;SDS011;4985;49.092;8.542;2022-12-08T12:58:16;3.80;;;2.87;;
9892;SDS011;4985;49.092;8.542;2022-12-08T13:00:45;3.57;;;2.77;;
9892;SDS011;4985;49.092;8.542;2022-12-08T13:03:13;5.03;;;3.00;;
9892;SDS011;4985;49.092;8.542;2022-12-08T13:05:45;4.90;;;3.50;;
9892;SDS011;4985;49.092;8.542;2022-12-08T13:08:17;3.80;;;2.80;;
9892;SDS011;4985;49.092;8.542;2022-12-08T13:10:48;3.50;;;2.67;;
9892;SDS011;4985;49.092;8.542;2022-12-08T13:13:26;4.77;;;3.13;;
9892;SDS011;4985;49.092;8.542;2022-12-08T13:15:54;3.50;;;2.57;;
9892;SDS011;4985;49.092;8.542;2022-12-08T13:18:25;3.30;;;2.30;;
9892;SDS011;4985;49.092;8.542;2022-12-08T13:20:56;4.50;;;3.00;;
9892;SDS011;4985;49.092;8.542;2022-12-08T13:23:40;4.03;;;2.60;;
9892;SDS011;4985;49.092;8.542;2022-12-08T13:26:10;3.43;;;2.30;;
9892;SDS011;4985;49.092;8.542;2022-12-08T13:29:13;4.60;;;2.70;;
9892;SDS011;4985;49.092;8.542;2022-12-08T13:31:45;4.43;;;3.23;;
9892;SDS011;4985;49.092;8.542;2022-12-08T13:34:15;5.10;;;3.10;;
9892;SDS011;4985;49.092;8.542;2022-12-08T13:36:46;3.70;;;2.30;;
9892;SDS011;4985;49.092;8.542;2022-12-08T13:39:20;4.07;;;2.70;;
9892;SDS011;4985;49.092;8.542;2022-12-08T13:41:51;5.20;;;3.23;;
9892;SDS011;4985;49.092;8.542;2022-12-08T13:44:25;4.03;;;2.50;;
9892;SDS011;4985;49.092;8.542;2022-12-08T13:46:57;5.30;;;2.87;;
9892;SDS011;4985;49.092;8.542;2022-12-08T13:49:26;3.90;;;2.83;;
9892;SDS011;4985;49.092;8.542;2022-12-08T13:51:57;3.87;;;2.90;;
9892;SDS011;4985;49.092;8.542;2022-12-08T13:54:25;4.00;;;2.77;;
9892;SDS011;4985;49.092;8.542;2022-12-08T13:56:55;2.87;;;2.33;;
9892;SDS011;4985;49.092;8.542;2022-12-08T13:59:25;4.27;;;2.33;;
9892;SDS011;4985;49.092;8.542;2022-12-08T14:01:55;4.43;;;2.47;;
9892;SDS011;4985;49.092;8.542;2022-12-08T14:04:23;5.43;;;2.47;;
9892;SDS011;4985;49.092;8.542;2022-12-08T14:06:51;3.97;;;2.83;;
9892;SDS011;4985;49.092;8.542;2022-12-08T14:09:21;3.77;;;2.63;;
9892;SDS011;4985;49.092;8.542;2022-12-08T14:11:51;2.87;;;2.53;;
9892;SDS011;4985;49.092;8.542;2022-12-08T14:14:22;3.60;;;2.70;;
9892;SDS011;4985;49.092;8.542;2022-12-08T14:16:54;3.60;;;2.50;;
9892;SDS011;4985;49.092;8.542;2022-12-08T14:19:22;4.13;;;3.00;;
9892;SDS011;4985;49.092;8.542;2022-12-08T14:21:52;3.93;;;2.33;;
9892;SDS011;4985;49.092;8.542;2022-12-08T14:24:21;4.83;;;2.83;;
9892;SDS011;4985;49.092;8.542;2022-12-08T14:26:49;3.07;;;2.57;;
9892;SDS011;4985;49.092;8.542;2022-12-08T14:29:24;3.37;;;2.30;;
9892;SDS011;4985;49.092;8.542;2022-12-08T14:32:01;3.17;;;2.67;;
9892;SDS011;4985;49.092;8.542;2022-12-08T14:34:28;3.70;;;3.13;;
9892;SDS011;4985;49.092;8.542;2022-12-08T14:36:56;2.90;;;2.30;;
9892;SDS011;4985;49.092;8.542;2022-12-08T14:39:24;4.17;;;2.70;;
9892;SDS011;4985;49.092;8.542;2022-12-08T14:41:57;2.77;;;2.17;;
9892;SDS011;4985;49.092;8.542;2022-12-08T14:44:25;4.57;;;2.67;;
9892;SDS011;4985;49.092;8.542;2022-12-08T14:47:03;4.07;;;2.80;;
9892;SDS011;4985;49.092;8.542;2022-12-08T14:49:30;4.80;;;3.10;;
9892;SDS011;4985;49.092;8.542;2022-12-08T14:51:58;3.73;;;2.80;;
9892;SDS011;4985;49.092;8.542;2022-12-08T14:54:26;4.40;;;3.00;;
9892;SDS011;4985;49.092;8.542;2022-12-08T14:56:56;5.10;;;2.87;;
9892;SDS011;4985;49.092;8.542;2022-12-08T14:59:24;3.33;;;2.47;;
9892;SDS011;4985;49.092;8.542;2022-12-08T15:02:08;3.80;;;2.73;;
9892;SDS011;4985;49.092;8.542;2022-12-08T15:04:37;3.87;;;2.80;;
9892;SDS011;4985;49.092;8.542;2022-12-08T15:07:09;3.80;;;2.80;;
9892;SDS011;4985;49.092;8.542;2022-12-08T15:09:39;4.13;;;2.80;;
9892;SDS011;4985;49.092;8.542;2022-12-08T15:12:18;3.17;;;2.37;;
9892;SDS011;4985;49.092;8.542;2022-12-08T15:14:53;3.97;;;2.80;;
9892;SDS011;4985;49.092;8.542;2022-12-08T15:17:27;4.17;;;2.73;;
9892;SDS011;4985;49.092;8.542;2022-12-08T15:19:58;5.27;;;3.63;;
9892;SDS011;4985;49.092;8.542;2022-12-08T15:22:26;4.93;;;3.07;;
9892;SDS011;4985;49.092;8.542;2022-12-08T15:24:55;4.57;;;3.07;;
9892;SDS011;4985;49.092;8.542;2022-12-08T15:27:23;3.47;;;2.60;;
9892;SDS011;4985;49.092;8.542;2022-12-08T15:29:51;4.47;;;2.90;;
9892;SDS011;4985;49.092;8.542;2022-12-08T15:32:18;4.37;;;2.93;;
9892;SDS011;4985;49.092;8.542;2022-12-08T15:34:48;4.87;;;2.83;;
9892;SDS011;4985;49.092;8.542;2022-12-08T15:37:17;4.03;;;2.93;;
9892;SDS011;4985;49.092;8.542;2022-12-08T15:39:46;4.23;;;2.93;;
9892;SDS011;4985;49.092;8.542;2022-12-08T15:42:13;6.57;;;3.80;;